createdAt,value
2023-05-15T00:00:27.693Z,13.75
2023-05-15T00:02:54.085Z,13.77
2023-05-15T00:05:21.238Z,13.77
2023-05-15T00:07:47.608Z,13.76
2023-05-15T00:10:13.888Z,13.74
2023-05-15T00:12:40.206Z,13.73
2023-05-15T00:15:06.827Z,13.68
2023-05-15T00:17:33.128Z,13.65
2023-05-15T00:20:00.387Z,13.57
2023-05-15T00:22:26.827Z,13.48
2023-05-15T00:24:53.188Z,13.41
2023-05-15T00:27:19.539Z,13.37
2023-05-15T00:29:45.866Z,13.33
2023-05-15T00:32:12.271Z,13.30
2023-05-15T00:34:38.629Z,13.25
2023-05-15T00:37:05.134Z,13.19
2023-05-15T00:39:31.436Z,13.18
2023-05-15T00:41:59.570Z,13.14
2023-05-15T00:44:28.328Z,13.09
2023-05-15T00:46:55.650Z,13.07
2023-05-15T00:49:22.474Z,13.04
2023-05-15T00:51:49.131Z,12.99
2023-05-15T00:54:16.181Z,12.96
2023-05-15T00:56:43.610Z,12.93
2023-05-15T00:59:09.999Z,12.88
2023-05-15T01:01:36.572Z,12.84
2023-05-15T01:04:03.454Z,12.77
2023-05-15T01:06:30.394Z,12.70
2023-05-15T01:08:57.836Z,12.65
2023-05-15T01:11:26.915Z,12.65
2023-05-15T01:13:53.325Z,12.65
2023-05-15T01:16:21.554Z,12.66
2023-05-15T01:18:48.052Z,12.70
2023-05-15T01:21:17.169Z,12.77
2023-05-15T01:23:43.446Z,12.89
2023-05-15T01:26:28.423Z,12.94
2023-05-15T01:29:13.520Z,12.95
2023-05-15T01:31:41.245Z,12.91
2023-05-15T01:34:09.466Z,12.87
2023-05-15T01:37:02.121Z,12.81
2023-05-15T01:39:28.996Z,12.76
2023-05-15T01:42:00.444Z,12.81
2023-05-15T01:44:35.719Z,12.92
2023-05-15T01:47:06.424Z,13.02
2023-05-15T01:49:33.535Z,13.00
2023-05-15T01:52:03.473Z,12.88
2023-05-15T01:54:29.997Z,12.77
2023-05-15T01:56:57.344Z,12.66
2023-05-15T01:59:24.943Z,12.51
2023-05-15T02:01:52.117Z,12.35
2023-05-15T02:04:19.685Z,12.20
2023-05-15T02:06:47.365Z,12.03
2023-05-15T02:09:14.828Z,11.90
2023-05-15T02:11:41.982Z,11.80
2023-05-15T02:14:09.198Z,11.72
2023-05-15T02:16:35.760Z,11.62
2023-05-15T02:19:02.196Z,11.51
2023-05-15T02:21:29.066Z,11.38
2023-05-15T02:23:55.353Z,11.28
2023-05-15T02:27:00.245Z,11.20
2023-05-15T02:29:46.791Z,11.10
2023-05-15T02:32:18.955Z,11.00
2023-05-15T02:34:50.803Z,10.92
2023-05-15T02:37:20.986Z,10.81
2023-05-15T02:39:49.570Z,10.74
2023-05-15T02:42:15.975Z,10.69
2023-05-15T02:44:42.592Z,10.67
2023-05-15T02:47:09.528Z,10.69
2023-05-15T02:49:35.862Z,10.71
2023-05-15T02:52:02.599Z,10.69
2023-05-15T02:54:28.895Z,10.65
2023-05-15T02:56:55.198Z,10.61
2023-05-15T02:59:21.809Z,10.58
2023-05-15T03:01:48.229Z,10.60
2023-05-15T03:04:14.818Z,10.62
2023-05-15T03:06:41.218Z,10.58
2023-05-15T03:09:08.044Z,10.56
2023-05-15T03:11:34.360Z,10.51
2023-05-15T03:14:00.783Z,10.62
2023-05-15T03:16:27.336Z,10.57
2023-05-15T03:18:53.727Z,10.60
2023-05-15T03:21:20.256Z,10.65
2023-05-15T03:23:46.557Z,10.86
2023-05-15T03:26:12.968Z,11.03
2023-05-15T03:28:40.561Z,11.16
2023-05-15T03:31:08.543Z,11.20
2023-05-15T03:33:34.892Z,11.25
2023-05-15T03:36:01.267Z,11.31
2023-05-15T03:38:27.622Z,11.36
2023-05-15T03:40:53.894Z,11.41
2023-05-15T03:43:20.243Z,11.48
2023-05-15T03:45:46.569Z,11.54
2023-05-15T03:48:12.895Z,11.61
2023-05-15T03:50:40.180Z,11.73
2023-05-15T03:53:06.595Z,11.80
2023-05-15T03:55:33.067Z,11.86
2023-05-15T03:57:59.513Z,11.93
2023-05-15T04:00:26.073Z,11.97
2023-05-15T04:02:52.758Z,12.00
2023-05-15T04:05:22.560Z,12.04
2023-05-15T04:07:49.071Z,12.09
2023-05-15T04:10:15.516Z,12.15
2023-05-15T04:12:41.908Z,12.21
2023-05-15T04:15:14.037Z,12.28
2023-05-15T04:17:40.384Z,12.31
2023-05-15T04:20:07.375Z,12.38
2023-05-15T04:22:33.650Z,12.47
2023-05-15T04:24:59.933Z,12.52
2023-05-15T04:27:26.700Z,12.62
2023-05-15T04:29:53.204Z,12.67
2023-05-15T04:32:19.625Z,12.73
2023-05-15T04:34:46.139Z,12.78
2023-05-15T04:37:12.449Z,12.79
2023-05-15T04:39:38.721Z,12.84
2023-05-15T04:42:05.207Z,12.88
2023-05-15T04:44:32.044Z,12.92
2023-05-15T04:46:58.354Z,12.95
2023-05-15T04:49:24.710Z,13.06
2023-05-15T04:51:50.985Z,13.10
2023-05-15T04:54:17.293Z,13.13
2023-05-15T04:56:43.824Z,13.11
2023-05-15T04:59:10.869Z,13.24
2023-05-15T05:01:37.329Z,13.30
2023-05-15T05:04:03.830Z,13.32
2023-05-15T05:06:30.692Z,13.34
2023-05-15T05:08:57.132Z,13.39
2023-05-15T05:11:23.465Z,13.47
2023-05-15T05:13:50.031Z,13.45
2023-05-15T05:16:16.372Z,13.44
2023-05-15T05:18:42.696Z,13.52
2023-05-15T05:21:09.013Z,13.58
2023-05-15T05:23:35.363Z,13.65
2023-05-15T05:26:03.019Z,13.71
2023-05-15T05:28:30.563Z,13.68
2023-05-15T05:30:56.893Z,13.79
2023-05-15T05:33:23.241Z,13.88
2023-05-15T05:35:49.600Z,13.97
2023-05-15T05:38:16.011Z,14.10
2023-05-15T05:40:42.650Z,14.14
2023-05-15T05:43:08.940Z,14.24
2023-05-15T05:45:35.266Z,14.20
2023-05-15T05:48:01.620Z,14.34
2023-05-15T05:50:28.029Z,14.43
2023-05-15T05:52:54.303Z,14.45
2023-05-15T05:55:20.684Z,14.48
2023-05-15T05:57:46.973Z,14.57
2023-05-15T06:00:14.172Z,14.61
2023-05-15T06:02:40.666Z,14.72
2023-05-15T06:05:07.415Z,14.85
2023-05-15T06:07:34.135Z,14.86
2023-05-15T06:10:00.535Z,14.93
2023-05-15T06:12:27.879Z,15.03
2023-05-15T06:14:54.175Z,15.12
2023-05-15T06:17:21.165Z,15.22
2023-05-15T06:19:47.466Z,15.24
2023-05-15T06:22:13.772Z,15.27
2023-05-15T06:24:40.100Z,15.37
2023-05-15T06:27:06.436Z,15.47
2023-05-15T06:29:32.765Z,15.47
2023-05-15T06:31:59.064Z,15.58
2023-05-15T06:34:25.351Z,15.58
2023-05-15T06:36:52.489Z,15.68
2023-05-15T06:39:18.829Z,15.71
2023-05-15T06:41:45.438Z,15.82
2023-05-15T06:44:11.730Z,15.89
2023-05-15T06:46:38.087Z,15.91
2023-05-15T06:49:04.419Z,16.01
2023-05-15T06:51:30.851Z,16.10
2023-05-15T06:53:57.210Z,16.18
2023-05-15T06:56:23.937Z,16.14
2023-05-15T06:58:50.311Z,16.22
2023-05-15T07:01:16.712Z,16.43
2023-05-15T07:03:43.066Z,16.48
2023-05-15T07:06:09.446Z,16.57
2023-05-15T07:08:35.907Z,16.65
2023-05-15T07:11:02.274Z,16.71
2023-05-15T07:13:28.552Z,16.65
2023-05-15T07:15:54.900Z,16.76
2023-05-15T07:18:21.284Z,16.62
2023-05-15T07:20:47.666Z,16.77
2023-05-15T07:23:14.051Z,16.75
2023-05-15T07:25:40.839Z,16.70
2023-05-15T07:28:07.169Z,16.78
2023-05-15T07:30:33.529Z,16.74
2023-05-15T07:32:59.906Z,17.06
2023-05-15T07:35:26.590Z,17.20
2023-05-15T07:37:53.049Z,17.39
2023-05-15T07:40:19.389Z,17.56
2023-05-15T07:42:45.721Z,17.76
2023-05-15T07:45:12.108Z,17.88
2023-05-15T07:47:38.523Z,17.87
2023-05-15T07:50:05.108Z,18.07
2023-05-15T07:52:31.462Z,18.15
2023-05-15T07:54:58.123Z,18.15
2023-05-15T07:57:25.443Z,18.25
2023-05-15T07:59:51.772Z,18.38
2023-05-15T08:02:18.200Z,18.48
2023-05-15T08:04:44.546Z,18.66
2023-05-15T08:07:10.868Z,18.76
2023-05-15T08:09:37.206Z,18.82
2023-05-15T08:12:22.937Z,18.83
2023-05-15T08:14:49.338Z,19.00
2023-05-15T08:17:16.034Z,18.99
2023-05-15T08:19:42.404Z,19.03
2023-05-15T08:22:09.037Z,19.13
2023-05-15T08:24:35.377Z,19.20
2023-05-15T08:27:01.718Z,19.20
2023-05-15T08:29:28.051Z,19.08
2023-05-15T08:31:54.359Z,19.02
2023-05-15T08:34:20.786Z,19.10
2023-05-15T08:36:47.074Z,19.10
2023-05-15T08:39:13.335Z,18.96
2023-05-15T08:41:47.206Z,18.95
2023-05-15T08:44:14.094Z,18.80
2023-05-15T08:46:41.090Z,18.89
2023-05-15T08:49:13.046Z,18.87
2023-05-15T08:51:39.427Z,18.68
2023-05-15T08:54:06.357Z,18.33
2023-05-15T08:56:32.982Z,18.37
2023-05-15T08:58:59.488Z,18.48
2023-05-15T09:01:26.481Z,18.34
2023-05-15T09:03:52.871Z,18.39
2023-05-15T09:06:19.271Z,18.47
2023-05-15T09:08:46.304Z,18.50
2023-05-15T09:11:13.889Z,18.21
2023-05-15T09:13:40.196Z,18.40
2023-05-15T09:16:07.286Z,18.27
2023-05-15T09:18:33.728Z,18.31
2023-05-15T09:21:18.953Z,18.51
2023-05-15T09:23:45.321Z,18.63
2023-05-15T09:26:12.545Z,18.59
2023-05-15T09:28:39.146Z,18.47
2023-05-15T09:31:05.615Z,18.53
2023-05-15T09:33:33.126Z,18.68
2023-05-15T09:35:59.790Z,18.86
2023-05-15T09:38:26.208Z,19.06
2023-05-15T09:41:00.897Z,19.15
2023-05-15T09:43:28.578Z,19.23
2023-05-15T09:45:55.032Z,19.39
2023-05-15T09:48:21.493Z,19.44
2023-05-15T09:50:47.969Z,19.60
2023-05-15T09:53:14.491Z,19.67
2023-05-15T09:55:41.710Z,19.78
2023-05-15T09:58:12.249Z,19.85
2023-05-15T10:00:47.844Z,19.83
2023-05-15T10:03:15.649Z,19.89
2023-05-15T10:05:43.541Z,19.75
2023-05-15T10:08:11.273Z,19.77
2023-05-15T10:10:37.697Z,19.77
2023-05-15T10:13:05.815Z,19.78
2023-05-15T10:15:32.579Z,19.66
2023-05-15T10:17:59.397Z,19.70
2023-05-15T10:20:27.793Z,19.48
2023-05-15T10:22:55.806Z,19.58
2023-05-15T10:25:33.635Z,19.59
2023-05-15T10:28:00.931Z,19.55
2023-05-15T10:30:28.500Z,19.48
2023-05-15T10:32:55.785Z,19.62
2023-05-15T10:35:22.204Z,19.61
2023-05-15T10:37:49.137Z,19.53
2023-05-15T10:40:17.129Z,19.58
2023-05-15T10:42:44.412Z,19.63
2023-05-15T10:45:10.869Z,19.23
2023-05-15T10:47:38.444Z,19.46
2023-05-15T10:50:05.713Z,19.50
2023-05-15T10:52:33.249Z,19.16
2023-05-15T10:55:00.038Z,19.12
2023-05-15T10:57:28.884Z,18.91
2023-05-15T10:59:55.611Z,19.17
2023-05-15T11:02:26.545Z,19.03
2023-05-15T11:04:56.718Z,19.12
2023-05-15T11:07:24.143Z,19.17
2023-05-15T11:09:50.840Z,19.11
2023-05-15T11:12:17.239Z,19.15
2023-05-15T11:14:44.496Z,18.77
2023-05-15T11:17:11.791Z,18.97
2023-05-15T11:19:39.966Z,19.11
2023-05-15T11:22:09.365Z,19.03
2023-05-15T11:24:54.563Z,19.07
2023-05-15T11:27:29.212Z,19.10
2023-05-15T11:30:07.921Z,18.92
2023-05-15T11:32:41.545Z,19.06
2023-05-15T11:35:11.745Z,19.16
2023-05-15T11:37:48.403Z,19.38
2023-05-15T11:40:18.712Z,19.56
2023-05-15T11:43:04.638Z,19.63
2023-05-15T11:45:32.859Z,19.79
2023-05-15T11:48:03.352Z,19.73
2023-05-15T11:50:33.649Z,19.96
2023-05-15T11:53:04.441Z,20.02
2023-05-15T11:55:34.955Z,20.13
2023-05-15T11:58:01.799Z,20.35
2023-05-15T12:00:28.095Z,20.38
2023-05-15T12:02:54.543Z,20.33
2023-05-15T12:05:20.993Z,20.42
2023-05-15T12:07:47.353Z,20.43
2023-05-15T12:10:13.966Z,20.59
2023-05-15T12:12:44.229Z,20.61
2023-05-15T12:15:11.339Z,20.51
2023-05-15T12:17:41.134Z,20.42
2023-05-15T12:20:09.012Z,20.58
2023-05-15T12:22:39.115Z,20.60
2023-05-15T12:25:09.436Z,20.68
2023-05-15T12:27:36.416Z,20.61
2023-05-15T12:30:03.958Z,20.54
2023-05-15T12:32:37.728Z,20.43
2023-05-15T12:35:05.133Z,20.39
2023-05-15T12:37:34.853Z,20.01
2023-05-15T12:40:02.393Z,20.28
2023-05-15T12:42:28.789Z,20.38
2023-05-15T12:44:55.948Z,20.25
2023-05-15T12:47:23.515Z,20.24
2023-05-15T12:49:49.934Z,20.33
2023-05-15T12:52:17.052Z,19.90
2023-05-15T12:54:44.594Z,20.14
2023-05-15T12:57:11.108Z,19.79
2023-05-15T12:59:38.629Z,20.06
2023-05-15T13:02:08.842Z,20.08
2023-05-15T13:04:35.236Z,19.87
2023-05-15T13:07:01.528Z,19.94
2023-05-15T13:09:27.902Z,19.82
2023-05-15T13:11:57.219Z,19.78
2023-05-15T13:14:27.042Z,20.08
2023-05-15T13:16:53.403Z,19.75
2023-05-15T13:19:19.766Z,19.81
2023-05-15T13:21:46.486Z,19.63
2023-05-15T13:24:12.797Z,19.69
2023-05-15T13:26:39.530Z,19.69
2023-05-15T13:29:05.962Z,19.63
2023-05-15T13:31:32.567Z,19.62
2023-05-15T13:33:58.880Z,19.74
2023-05-15T13:36:25.196Z,19.83
2023-05-15T13:38:51.624Z,19.92
2023-05-15T13:41:18.057Z,20.03
2023-05-15T13:43:44.373Z,20.10
2023-05-15T13:46:10.768Z,20.15
2023-05-15T13:48:37.088Z,20.19
2023-05-15T13:51:03.461Z,20.25
2023-05-15T13:53:29.816Z,20.18
2023-05-15T13:55:56.210Z,20.29
2023-05-15T13:58:22.558Z,20.26
2023-05-15T14:00:48.944Z,20.38
2023-05-15T14:03:15.619Z,20.49
2023-05-15T14:05:42.035Z,20.66
2023-05-15T14:08:08.976Z,20.68
2023-05-15T14:10:38.150Z,20.34
2023-05-15T14:13:04.525Z,20.38
2023-05-15T14:15:30.852Z,20.47
2023-05-15T14:17:57.164Z,20.67
2023-05-15T14:20:23.751Z,20.72
2023-05-15T14:22:50.226Z,20.17
2023-05-15T14:25:16.532Z,20.23
2023-05-15T14:27:42.866Z,20.17
2023-05-15T14:30:09.512Z,20.11
2023-05-15T14:32:35.946Z,20.05
2023-05-15T14:35:02.343Z,19.90
2023-05-15T14:37:28.685Z,19.82
2023-05-15T14:39:55.099Z,19.45
2023-05-15T14:42:21.596Z,19.35
2023-05-15T14:44:48.506Z,19.35
2023-05-15T14:47:16.160Z,19.36
2023-05-15T14:49:42.872Z,19.23
2023-05-15T14:52:09.869Z,19.06
2023-05-15T14:54:36.220Z,18.77
2023-05-15T14:57:02.559Z,18.81
2023-05-15T14:59:28.949Z,18.41
2023-05-15T15:01:55.417Z,18.00
2023-05-15T15:04:21.775Z,18.23
2023-05-15T15:06:48.293Z,18.16
2023-05-15T15:09:14.645Z,17.87
2023-05-15T15:11:41.038Z,18.08
2023-05-15T15:14:07.486Z,18.05
2023-05-15T15:16:34.206Z,18.09
2023-05-15T15:19:00.735Z,17.96
2023-05-15T15:21:27.133Z,18.02
2023-05-15T15:23:54.666Z,18.07
2023-05-15T15:26:21.675Z,17.99
2023-05-15T15:28:48.030Z,17.92
2023-05-15T15:31:15.319Z,17.90
2023-05-15T15:33:41.694Z,17.97
2023-05-15T15:36:08.089Z,17.87
2023-05-15T15:38:34.418Z,17.99
2023-05-15T15:41:01.988Z,17.99
2023-05-15T15:43:28.314Z,17.92
2023-05-15T15:45:55.174Z,18.07
2023-05-15T15:48:21.559Z,18.09
2023-05-15T15:50:47.881Z,18.07
2023-05-15T15:53:14.195Z,18.15
2023-05-15T15:55:40.762Z,18.14
2023-05-15T15:58:07.125Z,18.10
2023-05-15T16:00:33.653Z,18.14
2023-05-15T16:03:00.072Z,17.83
2023-05-15T16:05:26.549Z,17.41
2023-05-15T16:07:52.879Z,17.46
2023-05-15T16:10:19.175Z,17.56
2023-05-15T16:12:45.688Z,17.71
2023-05-15T16:15:22.341Z,17.72
2023-05-15T16:17:53.548Z,17.38
2023-05-15T16:20:20.492Z,17.16
2023-05-15T16:22:46.782Z,17.18
2023-05-15T16:25:13.163Z,17.36
2023-05-15T16:27:39.496Z,17.33
2023-05-15T16:30:06.164Z,17.44
2023-05-15T16:32:33.785Z,16.61
2023-05-15T16:35:00.302Z,16.59
2023-05-15T16:37:26.599Z,16.18
2023-05-15T16:39:52.946Z,16.41
2023-05-15T16:42:19.310Z,16.23
2023-05-15T16:44:45.628Z,16.32
2023-05-15T16:47:11.979Z,16.69
2023-05-15T16:49:38.255Z,16.72
2023-05-15T16:52:04.741Z,16.39
2023-05-15T16:54:31.240Z,16.05
2023-05-15T16:56:57.613Z,16.58
2023-05-15T16:59:23.925Z,16.45
2023-05-15T17:01:50.871Z,16.10
2023-05-15T17:04:17.254Z,15.96
2023-05-15T17:06:43.563Z,16.28
2023-05-15T17:09:09.929Z,16.19
2023-05-15T17:11:36.284Z,16.20
2023-05-15T17:14:02.584Z,16.01
2023-05-15T17:16:29.361Z,16.28
2023-05-15T17:18:55.747Z,16.22
2023-05-15T17:21:22.136Z,16.24
2023-05-15T17:23:48.462Z,16.22
2023-05-15T17:26:14.747Z,16.18
2023-05-15T17:28:41.045Z,16.10
2023-05-15T17:31:11.079Z,16.08
2023-05-15T17:33:37.407Z,15.89
2023-05-15T17:36:04.000Z,15.96
2023-05-15T17:38:30.385Z,16.10
2023-05-15T17:40:56.853Z,16.07
2023-05-15T17:43:23.290Z,16.26
2023-05-15T17:45:49.823Z,16.16
2023-05-15T17:48:16.200Z,16.16
2023-05-15T17:50:42.534Z,15.82
2023-05-15T17:53:08.925Z,16.04
2023-05-15T17:55:35.271Z,16.03
2023-05-15T17:58:01.627Z,16.00
2023-05-15T18:00:27.963Z,16.24
2023-05-15T18:02:54.444Z,16.30
2023-05-15T18:05:20.845Z,16.34
2023-05-15T18:07:48.134Z,16.40
2023-05-15T18:10:14.671Z,16.42
2023-05-15T18:12:41.046Z,16.41
2023-05-15T18:15:07.642Z,16.50
2023-05-15T18:17:34.132Z,16.55
2023-05-15T18:20:01.654Z,16.60
2023-05-15T18:22:28.013Z,16.51
2023-05-15T18:24:54.421Z,16.52
2023-05-15T18:27:20.787Z,16.44
2023-05-15T18:29:47.373Z,16.48
2023-05-15T18:32:13.797Z,16.00
2023-05-15T18:34:40.100Z,15.86
2023-05-15T18:37:06.472Z,16.03
2023-05-15T18:39:32.822Z,15.90
2023-05-15T18:42:00.225Z,15.85
2023-05-15T18:44:26.672Z,16.09
2023-05-15T18:46:53.085Z,15.90
2023-05-15T18:49:19.479Z,15.98
2023-05-15T18:51:45.936Z,15.66
2023-05-15T18:54:12.255Z,15.69
2023-05-15T18:56:39.514Z,15.72
2023-05-15T18:59:06.954Z,15.52
2023-05-15T19:01:33.360Z,15.84
2023-05-15T19:03:59.743Z,15.76
2023-05-15T19:06:26.116Z,15.48
2023-05-15T19:08:52.657Z,15.47
2023-05-15T19:11:19.015Z,15.43
2023-05-15T19:13:45.452Z,15.31
2023-05-15T19:16:12.249Z,15.22
2023-05-15T19:18:38.790Z,15.59
2023-05-15T19:21:05.272Z,15.65
2023-05-15T19:23:31.632Z,15.47
2023-05-15T19:25:58.108Z,15.47
2023-05-15T19:28:24.537Z,15.52
2023-05-15T19:30:51.034Z,15.50
2023-05-15T19:33:17.673Z,15.47
2023-05-15T19:35:44.436Z,15.28
2023-05-15T19:38:10.823Z,15.36
2023-05-15T19:40:37.244Z,15.28
2023-05-15T19:43:04.235Z,15.52
2023-05-15T19:45:30.611Z,15.25
2023-05-15T19:47:57.072Z,15.14
2023-05-15T19:50:23.491Z,15.22
2023-05-15T19:52:50.264Z,15.11
2023-05-15T19:55:16.610Z,15.22
2023-05-15T19:57:45.076Z,15.50
2023-05-15T20:00:12.405Z,15.58
2023-05-15T20:02:41.501Z,15.60
2023-05-15T20:05:08.185Z,15.57
2023-05-15T20:07:35.248Z,15.50
2023-05-15T20:10:01.568Z,15.53
2023-05-15T20:12:27.906Z,15.27
2023-05-15T20:14:54.214Z,15.37
2023-05-15T20:17:20.624Z,15.39
2023-05-15T20:19:49.369Z,15.54
2023-05-15T20:22:17.088Z,15.42
2023-05-15T20:24:44.145Z,15.59
2023-05-15T20:27:11.144Z,15.71
2023-05-15T20:29:40.455Z,15.58
2023-05-15T20:32:06.937Z,15.49
2023-05-15T20:34:34.304Z,15.37
2023-05-15T20:37:00.820Z,15.49
2023-05-15T20:39:27.109Z,15.37
2023-05-15T20:41:53.481Z,15.39
2023-05-15T20:44:19.801Z,15.34
2023-05-15T20:46:46.320Z,15.40
2023-05-15T20:49:12.772Z,15.62
2023-05-15T20:51:41.563Z,15.33
2023-05-15T20:54:07.862Z,15.40
2023-05-15T20:56:34.172Z,15.28
2023-05-15T20:59:00.576Z,15.33
2023-05-15T21:01:26.928Z,15.22
2023-05-15T21:03:53.362Z,15.34
2023-05-15T21:06:19.854Z,15.49
2023-05-15T21:08:46.135Z,15.54
2023-05-15T21:11:13.376Z,15.45
2023-05-15T21:13:39.685Z,15.43
2023-05-15T21:16:06.231Z,15.63
2023-05-15T21:18:32.576Z,15.62
2023-05-15T21:20:58.920Z,15.64
2023-05-15T21:23:25.207Z,15.48
2023-05-15T21:25:51.578Z,15.33
2023-05-15T21:28:17.884Z,15.43
2023-05-15T21:30:44.285Z,15.49
2023-05-15T21:33:10.737Z,15.37
2023-05-15T21:35:37.899Z,15.35
2023-05-15T21:38:04.251Z,15.46
2023-05-15T21:40:30.620Z,15.65
2023-05-15T21:42:56.915Z,15.42
2023-05-15T21:45:23.206Z,15.52
2023-05-15T21:47:49.582Z,15.25
2023-05-15T21:50:15.955Z,15.32
2023-05-15T21:52:42.444Z,15.26
2023-05-15T21:55:08.999Z,15.19
2023-05-15T21:57:35.530Z,15.15
2023-05-15T22:00:02.469Z,14.89
2023-05-15T22:02:28.900Z,14.85
2023-05-15T22:04:55.340Z,14.88
2023-05-15T22:07:21.639Z,14.89
2023-05-15T22:09:48.017Z,15.06
2023-05-15T22:12:14.358Z,15.15
2023-05-15T22:14:54.676Z,15.21
2023-05-15T22:17:27.010Z,15.01
2023-05-15T22:19:53.480Z,15.22
2023-05-15T22:22:20.804Z,15.22
2023-05-15T22:24:47.167Z,15.29
2023-05-15T22:27:16.410Z,15.32
2023-05-15T22:29:42.702Z,15.27
2023-05-15T22:32:09.170Z,15.34
2023-05-15T22:34:36.045Z,15.43
2023-05-15T22:37:02.492Z,15.44
2023-05-15T22:39:28.840Z,15.36
2023-05-15T22:41:55.716Z,15.20
2023-05-15T22:44:22.403Z,15.23
2023-05-15T22:46:49.300Z,15.21
2023-05-15T22:49:19.193Z,15.09
2023-05-15T22:51:45.748Z,14.97
2023-05-15T22:54:12.157Z,15.05
2023-05-15T22:56:38.434Z,15.11
2023-05-15T22:59:04.849Z,15.12
2023-05-15T23:01:32.121Z,15.00
2023-05-15T23:03:58.520Z,14.84
2023-05-15T23:06:24.865Z,14.95
2023-05-15T23:08:51.454Z,14.84
2023-05-15T23:11:17.824Z,14.94
2023-05-15T23:13:44.393Z,14.92
2023-05-15T23:16:10.769Z,14.67
2023-05-15T23:18:37.196Z,14.77
2023-05-15T23:21:04.662Z,14.63
2023-05-15T23:23:31.144Z,14.45
2023-05-15T23:25:57.599Z,14.59
2023-05-15T23:28:23.909Z,14.61
2023-05-15T23:30:53.641Z,14.75
2023-05-15T23:33:20.003Z,14.41
2023-05-15T23:35:46.417Z,14.63
2023-05-15T23:38:12.877Z,14.59
2023-05-15T23:40:39.218Z,14.23
2023-05-15T23:43:06.688Z,14.17
2023-05-15T23:45:32.982Z,14.41
2023-05-15T23:47:59.396Z,14.33
2023-05-15T23:50:26.042Z,14.32
2023-05-15T23:52:52.585Z,14.33
2023-05-15T23:55:19.045Z,14.38
2023-05-15T23:57:46.908Z,14.29
